Time;durP1;ratioP1;P1;durP2;ratioP2;P2;SDS_P1;SDS_P2;PMS_P1;PMS_P2;Temp;Humidity;BMP_temperature;BMP_pressure;BME280_temperature;BME280_humidity;BME280_pressure;Samples;Min_cycle;Max_cycle;Signal;HPM_P1;HPM_P2
2021/12/18 00:00:22;;;;;;;30.07;13.97;;;;;;;6.74;100.00;102687.16;5036244;28;20233;-78
2021/12/18 00:02:48;;;;;;;26.13;12.97;;;;;;;6.74;100.00;102687.16;5035263;28;20220;-78
2021/12/18 00:05:15;;;;;;;30.77;14.30;;;;;;;6.73;100.00;102689.72;5037095;28;20228;-78
2021/12/18 00:07:41;;;;;;;21.90;13.27;;;;;;;6.71;100.00;102686.19;5036572;28;20223;-78
2021/12/18 00:10:10;;;;;;;20.87;12.27;;;;;;;6.73;100.00;102693.16;5028983;28;20601;-78
2021/12/18 00:12:36;;;;;;;23.87;12.67;;;;;;;6.73;100.00;102697.50;5036575;28;20202;-78
2021/12/18 00:15:03;;;;;;;17.47;11.13;;;;;;;6.77;100.00;102696.75;5037239;28;20201;-78
2021/12/18 00:17:29;;;;;;;17.77;11.27;;;;;;;6.72;100.00;102706.13;5028851;28;20196;-78
2021/12/18 00:19:55;;;;;;;16.27;10.00;;;;;;;6.65;100.00;102714.53;5033180;28;20247;-78
2021/12/18 00:22:22;;;;;;;13.00;9.87;;;;;;;6.71;100.00;102723.38;5032138;28;20627;-78
2021/12/18 00:24:48;;;;;;;14.57;9.47;;;;;;;6.79;100.00;102709.78;5035381;28;20208;-78
2021/12/18 00:27:16;;;;;;;9.37;8.07;;;;;;;6.87;100.00;102710.94;5035289;28;20200;-78
2021/12/18 00:29:42;;;;;;;13.00;8.67;;;;;;;6.86;100.00;102717.84;5035499;28;20278;-78
2021/12/18 00:32:09;;;;;;;11.23;8.53;;;;;;;6.96;100.00;102727.69;5036504;28;20274;-77
2021/12/18 00:34:39;;;;;;;10.57;7.97;;;;;;;7.04;100.00;102737.47;5030453;28;20258;-78
2021/12/18 00:37:05;;;;;;;11.47;8.50;;;;;;;7.06;100.00;102738.41;5034016;28;20228;-80
2021/12/18 00:39:33;;;;;;;9.00;7.83;;;;;;;7.14;100.00;102740.41;5041777;23;20233;-79
2021/12/18 00:42:19;;;;;;;9.70;7.33;;;;;;;7.07;100.00;102748.81;4976141;28;20222;-80
2021/12/18 00:44:47;;;;;;;8.83;7.90;;;;;;;7.14;100.00;102762.91;4978159;28;20210;-80
2021/12/18 00:47:14;;;;;;;10.77;7.27;;;;;;;7.06;100.00;102767.84;4978815;28;20203;-78
2021/12/18 00:49:52;;;;;;;10.67;8.27;;;;;;;7.15;100.00;102770.75;4983727;28;20225;-79
2021/12/18 00:52:23;;;;;;;9.33;7.63;;;;;;;7.15;100.00;102780.22;4998050;28;20228;-79
2021/12/18 00:54:50;;;;;;;10.43;7.60;;;;;;;7.02;100.00;102789.34;4998021;28;20211;-79
2021/12/18 00:57:17;;;;;;;13.60;7.80;;;;;;;6.94;100.00;102794.28;4997625;28;20209;-79
2021/12/18 00:59:43;;;;;;;9.57;7.47;;;;;;;6.91;100.00;102788.09;4997272;28;20280;-78
2021/12/18 01:02:11;;;;;;;11.30;7.80;;;;;;;6.92;100.00;102795.94;4997795;28;20256;-79
2021/12/18 01:04:37;;;;;;;10.83;7.43;;;;;;;6.96;100.00;102787.41;4997946;28;20300;-79
2021/12/18 01:07:04;;;;;;;13.60;7.97;;;;;;;7.01;100.00;102782.38;4998282;28;20260;-79
2021/12/18 01:09:46;;;;;;;11.47;8.40;;;;;;;6.93;100.00;102778.63;4999586;28;20234;-80
2021/12/18 01:12:12;;;;;;;10.73;7.93;;;;;;;6.98;100.00;102784.88;4991951;28;20323;-79
2021/12/18 01:14:55;;;;;;;18.67;8.10;;;;;;;6.89;100.00;102774.16;4997613;28;20213;-78
2021/12/18 01:22:51;;;;;;;12.03;8.43;;;;;;;6.85;100.00;102757.59;4997408;28;20204;-79
2021/12/18 01:25:20;;;;;;;13.20;8.27;;;;;;;6.77;100.00;102759.06;4997500;28;20232;-79
2021/12/18 01:27:47;;;;;;;22.23;9.53;;;;;;;6.80;100.00;102760.88;4997276;28;20279;-79
2021/12/18 01:30:15;;;;;;;12.30;8.23;;;;;;;6.90;100.00;102760.38;4997419;28;20729;-79
2021/12/18 01:32:43;;;;;;;13.20;9.00;;;;;;;6.78;100.00;102759.94;4997377;28;20206;-79
2021/12/18 01:35:10;;;;;;;12.33;9.03;;;;;;;6.83;100.00;102754.06;4997254;28;20215;-79
2021/12/18 01:37:37;;;;;;;14.00;9.03;;;;;;;6.71;100.00;102769.22;4996917;28;20203;-80
2021/12/18 01:40:05;;;;;;;12.27;8.47;;;;;;;6.73;100.00;102765.84;4998528;28;20229;-79
2021/12/18 01:43:28;;;;;;;12.70;8.53;;;;;;;6.70;100.00;102764.84;4995402;28;20624;-79
2021/12/18 01:51:18;;;;;;;16.33;7.97;;;;;;;6.52;100.00;102758.22;4995334;28;20236;-79
2021/12/18 01:53:45;;;;;;;11.50;7.77;;;;;;;6.57;100.00;102764.44;4994651;28;20196;-79
2021/12/18 01:56:12;;;;;;;12.30;7.90;;;;;;;6.64;100.00;102756.84;4996138;28;20216;-78
2021/12/18 01:58:39;;;;;;;12.13;8.37;;;;;;;6.42;100.00;102755.22;4995390;28;20567;-79
2021/12/18 02:01:05;;;;;;;16.57;8.67;;;;;;;6.28;100.00;102744.34;4996441;28;20225;-79
2021/12/18 02:03:34;;;;;;;16.90;8.33;;;;;;;6.22;100.00;102733.75;4996138;28;20276;-79
2021/12/18 02:06:00;;;;;;;11.03;6.93;;;;;;;6.17;100.00;102725.84;4996045;28;20270;-79
2021/12/18 02:08:29;;;;;;;11.70;6.43;;;;;;;6.15;100.00;102719.72;4995594;28;20229;-79
2021/12/18 02:11:01;;;;;;;12.27;6.33;;;;;;;6.10;100.00;102711.75;4995910;28;20750;-79
2021/12/18 02:13:46;;;;;;;19.00;6.33;;;;;;;6.10;100.00;102696.19;4995905;28;20193;-78
2021/12/18 02:21:43;;;;;;;9.97;5.30;;;;;;;6.01;100.00;102688.09;4995222;28;20231;-78
2021/12/18 02:24:11;;;;;;;13.23;5.17;;;;;;;5.97;100.00;102688.81;4995532;28;20202;-79
2021/12/18 02:26:38;;;;;;;14.10;5.97;;;;;;;5.99;100.00;102694.94;4995329;28;20222;-78
2021/12/18 02:29:05;;;;;;;10.53;5.37;;;;;;;6.03;100.00;102690.75;4995250;28;20843;-79
2021/12/18 02:31:32;;;;;;;10.33;5.53;;;;;;;6.01;100.00;102687.22;4993565;28;20288;-78
2021/12/18 02:33:59;;;;;;;8.43;4.83;;;;;;;6.01;100.00;102684.63;4995462;28;20204;-79
2021/12/18 02:36:25;;;;;;;13.57;5.40;;;;;;;6.06;100.00;102680.47;4995379;28;20223;-80
2021/12/18 02:39:16;;;;;;;10.90;5.33;;;;;;;6.04;100.00;102680.41;4995380;28;20205;-78
2021/12/18 02:41:45;;;;;;;10.23;5.97;;;;;;;6.05;100.00;102673.53;4993672;28;20195;-78
2021/12/18 02:44:13;;;;;;;12.13;6.00;;;;;;;6.03;100.00;102676.06;4995506;28;20295;-79
2021/12/18 02:46:41;;;;;;;22.17;7.33;;;;;;;6.06;100.00;102675.28;4995336;28;20702;-79
2021/12/18 02:49:12;;;;;;;14.30;6.70;;;;;;;6.10;100.00;102671.97;4995087;28;20230;-78
2021/12/18 02:51:39;;;;;;;16.53;6.37;;;;;;;6.09;100.00;102676.28;4994687;28;20201;-79
2021/12/18 02:54:07;;;;;;;21.87;5.70;;;;;;;6.09;100.00;102671.09;4995096;28;20201;-79
2021/12/18 02:56:34;;;;;;;76.23;9.03;;;;;;;6.06;100.00;102672.69;4994825;28;20627;-79
2021/12/18 02:59:04;;;;;;;73.90;8.37;;;;;;;6.02;100.00;102666.50;4995275;28;20252;-79
2021/12/18 03:01:33;;;;;;;66.77;8.37;;;;;;;5.99;100.00;102673.31;4994763;28;20843;-79
2021/12/18 03:04:01;;;;;;;86.57;10.20;;;;;;;5.99;100.00;102671.59;4995157;28;20255;-79
2021/12/18 03:06:32;;;;;;;103.37;9.77;;;;;;;6.05;100.00;102666.63;4995223;28;20224;-79
2021/12/18 03:09:17;;;;;;;61.33;9.27;;;;;;;6.03;100.00;102662.22;4988068;28;20703;-78
2021/12/18 03:23:29;;;;;;;25.37;11.27;;;;;;;6.09;100.00;102652.06;4994811;28;20634;-78
2021/12/18 03:25:57;;;;;;;28.47;10.70;;;;;;;6.01;100.00;102656.13;4994700;28;20228;-79
2021/12/18 03:28:26;;;;;;;24.40;9.23;;;;;;;6.05;100.00;102658.00;4995694;28;20231;-78
2021/12/18 03:30:52;;;;;;;31.33;10.77;;;;;;;6.11;100.00;102653.88;4995543;28;20282;-79
2021/12/18 03:33:19;;;;;;;28.33;10.50;;;;;;;6.01;100.00;102658.72;4987745;28;20279;-79
2021/12/18 03:35:46;;;;;;;20.13;9.83;;;;;;;5.97;100.00;102647.34;4995097;28;20276;-79
2021/12/18 03:38:12;;;;;;;25.23;10.20;;;;;;;5.95;100.00;102652.47;4995151;28;20213;-79
2021/12/18 03:40:39;;;;;;;24.07;9.77;;;;;;;5.91;100.00;102654.88;4996893;28;20306;-78
2021/12/18 03:43:05;;;;;;;22.23;9.67;;;;;;;5.93;100.00;102656.69;4994977;28;20202;-78
2021/12/18 03:45:33;;;;;;;27.60;9.70;;;;;;;5.93;100.00;102658.41;4995002;28;20250;-78
2021/12/18 03:47:59;;;;;;;33.00;10.17;;;;;;;5.92;100.00;102652.31;4994797;28;20229;-78
2021/12/18 03:50:26;;;;;;;22.30;9.67;;;;;;;5.91;100.00;102650.56;4995148;28;20224;-79
2021/12/18 03:52:52;;;;;;;26.23;10.33;;;;;;;5.91;100.00;102652.28;4995202;28;20247;-78
2021/12/18 03:55:19;;;;;;;27.50;10.00;;;;;;;5.94;100.00;102647.19;4995164;28;20207;-79
2021/12/18 03:57:45;;;;;;;30.47;10.07;;;;;;;5.91;100.00;102644.50;4995805;28;20223;-78
2021/12/18 04:00:15;;;;;;;28.20;10.10;;;;;;;5.92;100.00;102651.44;4994981;28;20220;-79
2021/12/18 04:02:44;;;;;;;25.90;11.30;;;;;;;5.89;100.00;102654.81;4994365;28;20271;-78
2021/12/18 04:05:11;;;;;;;36.80;9.67;;;;;;;5.94;100.00;102653.25;4995145;28;20198;-78
2021/12/18 04:07:42;;;;;;;35.07;10.87;;;;;;;5.91;100.00;102652.28;4997918;28;20264;-79
2021/12/18 04:10:10;;;;;;;37.57;10.57;;;;;;;5.88;100.00;102647.84;5001142;28;20237;-77
2021/12/18 04:12:37;;;;;;;33.00;9.90;;;;;;;5.94;100.00;102648.06;4998634;28;20200;-78
2021/12/18 04:15:03;;;;;;;43.70;9.33;;;;;;;5.89;100.00;102648.75;4998779;28;20231;-78
2021/12/18 04:17:30;;;;;;;84.70;11.43;;;;;;;5.90;100.00;102648.78;4998434;28;20674;-79
2021/12/18 04:19:58;;;;;;;59.93;11.20;;;;;;;5.88;100.00;102636.59;4998372;28;20229;-78
2021/12/18 04:22:24;;;;;;;36.07;10.07;;;;;;;5.83;100.00;102644.22;4998930;28;20204;-78
2021/12/18 04:24:50;;;;;;;29.73;10.67;;;;;;;5.84;100.00;102639.91;4997910;28;20254;-78
2021/12/18 04:27:17;;;;;;;25.43;9.90;;;;;;;5.82;100.00;102651.94;4998687;28;20254;-78
2021/12/18 04:29:43;;;;;;;26.67;10.23;;;;;;;5.83;100.00;102645.91;4998422;28;20251;-79
2021/12/18 04:32:10;;;;;;;23.20;10.50;;;;;;;5.81;100.00;102638.09;4997951;28;20232;-78
2021/12/18 04:34:36;;;;;;;26.93;10.03;;;;;;;5.78;100.00;102654.41;4997950;28;20209;-79
2021/12/18 04:37:04;;;;;;;34.47;10.60;;;;;;;5.86;100.00;102646.91;4998161;28;20209;-79
2021/12/18 04:39:30;;;;;;;31.30;10.50;;;;;;;5.87;100.00;102647.81;5000489;28;20722;-79
2021/12/18 04:41:58;;;;;;;25.97;10.37;;;;;;;5.91;100.00;102653.16;4998078;28;20200;-78
2021/12/18 04:44:24;;;;;;;26.90;11.10;;;;;;;5.88;100.00;102647.84;4997885;28;20223;-79
2021/12/18 04:46:52;;;;;;;19.97;10.23;;;;;;;5.92;100.00;102652.31;4998682;28;20201;-78
2021/12/18 04:49:18;;;;;;;18.10;9.80;;;;;;;5.94;100.00;102650.66;4997981;28;20225;-79
2021/12/18 04:51:45;;;;;;;15.03;9.10;;;;;;;5.99;100.00;102652.59;4997917;28;20204;-78
2021/12/18 04:54:13;;;;;;;13.97;8.60;;;;;;;5.93;100.00;102653.22;4998159;28;20201;-78
2021/12/18 04:56:39;;;;;;;16.47;8.70;;;;;;;5.91;100.00;102652.28;4990031;28;20205;-78
2021/12/18 04:59:06;;;;;;;16.43;8.20;;;;;;;5.99;100.00;102655.19;4998057;28;20201;-79
2021/12/18 05:01:36;;;;;;;9.93;7.40;;;;;;;5.93;100.00;102660.97;4998030;28;20209;-78
2021/12/18 05:04:04;;;;;;;10.47;6.73;;;;;;;5.92;100.00;102644.53;4998684;28;20199;-78
2021/12/18 05:06:31;;;;;;;11.87;7.83;;;;;;;5.93;100.00;102650.63;4997724;28;20202;-79
2021/12/18 05:08:58;;;;;;;9.43;6.73;;;;;;;5.93;100.00;102648.03;4998290;28;20311;-79
2021/12/18 05:11:26;;;;;;;10.90;7.37;;;;;;;6.03;100.00;102659.66;4999985;28;21032;-78
2021/12/18 05:13:52;;;;;;;10.30;7.47;;;;;;;6.07;100.00;102646.84;4997600;28;20271;-79
2021/12/18 05:16:18;;;;;;;11.77;8.00;;;;;;;6.09;100.00;102644.31;4998224;28;20202;-78
2021/12/18 05:18:45;;;;;;;8.53;6.57;;;;;;;5.94;100.00;102654.97;4997450;28;20203;-79
2021/12/18 05:21:11;;;;;;;15.00;7.03;;;;;;;5.89;100.00;102654.81;4997690;28;20223;-79
2021/12/18 05:23:38;;;;;;;11.33;7.40;;;;;;;5.87;100.00;102668.53;4997306;28;20670;-79
2021/12/18 05:26:04;;;;;;;11.70;7.73;;;;;;;5.83;100.00;102670.13;4997893;28;20225;-78
2021/12/18 05:28:32;;;;;;;14.20;7.50;;;;;;;5.85;100.00;102665.88;4997744;28;20581;-78
2021/12/18 05:30:58;;;;;;;12.37;7.83;;;;;;;5.89;100.00;102672.06;4997563;28;20255;-78
2021/12/18 05:33:24;;;;;;;15.57;7.73;;;;;;;5.82;100.00;102668.34;4997306;28;20252;-78
2021/12/18 05:35:51;;;;;;;13.57;8.33;;;;;;;5.88;100.00;102671.16;4997408;28;20206;-79
2021/12/18 05:38:17;;;;;;;13.50;7.40;;;;;;;5.75;100.00;102668.97;4996998;28;20259;-78
2021/12/18 05:40:44;;;;;;;13.43;7.90;;;;;;;5.84;100.00;102665.81;4998973;28;20237;-79
2021/12/18 05:43:10;;;;;;;15.27;8.40;;;;;;;5.92;100.00;102665.25;4996143;28;20930;-78
2021/12/18 05:45:39;;;;;;;11.37;9.17;;;;;;;5.96;100.00;102672.34;4997287;28;20270;-78
2021/12/18 05:48:06;;;;;;;13.00;8.20;;;;;;;6.09;100.00;102672.81;4997091;28;20209;-79
2021/12/18 05:50:33;;;;;;;11.93;7.40;;;;;;;6.02;100.00;102679.47;4997163;28;20612;-78
2021/12/18 05:53:00;;;;;;;12.80;7.27;;;;;;;5.93;100.00;102677.41;4996722;28;20290;-78
2021/12/18 05:55:27;;;;;;;11.13;7.50;;;;;;;5.85;100.00;102673.66;4996611;28;20213;-79
2021/12/18 05:57:54;;;;;;;14.47;8.80;;;;;;;5.82;100.00;102663.16;4997008;28;20202;-78
2021/12/18 06:00:21;;;;;;;14.30;8.80;;;;;;;5.81;100.00;102660.50;4996456;28;20225;-78
2021/12/18 06:02:50;;;;;;;14.73;8.77;;;;;;;5.76;100.00;102660.34;4996689;28;20731;-79
2021/12/18 06:05:16;;;;;;;38.13;9.80;;;;;;;5.85;100.00;102652.94;4997116;28;20202;-79
2021/12/18 06:07:57;;;;;;;71.87;10.73;;;;;;;5.82;100.00;102662.28;4996992;28;20204;-79
2021/12/18 06:10:27;;;;;;;201.37;14.60;;;;;;;5.77;100.00;102660.41;4998794;28;20235;-79
2021/12/18 06:12:54;;;;;;;184.93;14.70;;;;;;;5.70;100.00;102655.81;4991400;28;20262;-79
2021/12/18 06:15:20;;;;;;;16.10;9.53;;;;;;;5.78;100.00;102657.00;4996314;28;20217;-79
2021/12/18 06:17:48;;;;;;;15.97;9.10;;;;;;;5.89;100.00;102649.63;4996940;28;20671;-79
2021/12/18 06:20:15;;;;;;;18.00;9.43;;;;;;;5.85;100.00;102650.34;4996422;28;20289;-79
2021/12/18 06:22:41;;;;;;;14.23;7.93;;;;;;;5.94;100.00;102658.41;4996074;28;20258;-79
2021/12/18 06:25:09;;;;;;;8.13;5.70;;;;;;;5.95;100.00;102668.00;4996476;28;20197;-79
2021/12/18 06:27:36;;;;;;;7.57;5.57;;;;;;;6.01;100.00;102658.72;4996034;28;20197;-78
2021/12/18 06:30:03;;;;;;;6.63;4.53;;;;;;;5.99;100.00;102662.97;4995040;28;20230;-78
2021/12/18 06:32:30;;;;;;;6.87;4.70;;;;;;;6.02;100.00;102671.69;4995695;28;20291;-79
2021/12/18 06:34:58;;;;;;;8.33;4.83;;;;;;;6.02;100.00;102676.88;4996536;28;20225;-79
2021/12/18 06:37:24;;;;;;;6.50;4.40;;;;;;;6.09;100.00;102667.63;4996422;28;20263;-79
2021/12/18 06:39:51;;;;;;;5.57;3.97;;;;;;;5.95;100.00;102675.78;5020066;23;20235;-74
2021/12/18 06:42:17;;;;;;;6.23;4.10;;;;;;;6.01;100.00;102679.44;4994355;28;20282;-79
2021/12/18 06:44:43;;;;;;;7.37;4.90;;;;;;;6.08;100.00;102684.00;4992859;28;20256;-79
2021/12/18 06:47:10;;;;;;;6.70;4.30;;;;;;;5.99;100.00;102692.34;4992403;28;20204;-79
2021/12/18 06:49:36;;;;;;;8.10;4.67;;;;;;;5.98;100.00;102690.56;4992420;28;20719;-79
2021/12/18 06:52:05;;;;;;;13.83;5.13;;;;;;;5.89;100.00;102693.69;5011669;28;20294;-77
2021/12/18 06:54:31;;;;;;;29.57;5.23;;;;;;;5.75;100.00;102689.72;5012378;28;20215;-78
2021/12/18 06:56:59;;;;;;;20.87;5.73;;;;;;;5.72;100.00;102686.97;5012070;28;20200;-78
2021/12/18 06:59:25;;;;;;;9.53;4.90;;;;;;;5.68;100.00;102685.09;5014485;28;20203;-78
2021/12/18 07:01:52;;;;;;;7.80;5.20;;;;;;;5.76;100.00;102678.50;5017268;28;20579;-79
2021/12/18 07:04:18;;;;;;;7.20;4.97;;;;;;;5.71;100.00;102672.28;5016415;28;20282;-81
2021/12/18 07:06:45;;;;;;;7.50;4.50;;;;;;;5.70;100.00;102676.56;5014668;28;20200;-78
2021/12/18 07:09:13;;;;;;;36.83;6.47;;;;;;;5.58;100.00;102664.03;5011632;28;20258;-79
2021/12/18 07:11:39;;;;;;;16.30;5.63;;;;;;;5.53;100.00;102660.41;5011213;28;20270;-78
2021/12/18 07:14:05;;;;;;;33.10;6.77;;;;;;;5.53;100.00;102655.22;5012896;28;20741;-80
2021/12/18 07:16:32;;;;;;;66.10;7.27;;;;;;;5.55;100.00;102647.50;5011489;28;20207;-78
2021/12/18 07:18:58;;;;;;;92.07;8.30;;;;;;;5.52;100.00;102650.84;5010360;28;20638;-78
2021/12/18 07:21:25;;;;;;;15.23;6.20;;;;;;;5.55;100.00;102647.50;5011438;28;20217;-77
2021/12/18 07:23:51;;;;;;;101.80;8.47;;;;;;;5.58;100.00;102645.88;5013312;28;20232;-79
2021/12/18 07:26:19;;;;;;;8.67;4.53;;;;;;;5.52;100.00;102648.25;5011588;28;20204;-77
2021/12/18 07:28:45;;;;;;;5.67;3.37;;;;;;;5.46;100.00;102647.16;5010940;28;20666;-78
2021/12/18 07:31:11;;;;;;;7.60;3.10;;;;;;;5.50;100.00;102649.91;5010930;28;20648;-77
2021/12/18 07:33:41;;;;;;;4.83;2.33;;;;;;;5.47;100.00;102649.81;5011079;28;20250;-78
2021/12/18 07:36:08;;;;;;;4.33;2.97;;;;;;;5.48;100.00;102648.09;5010857;28;20204;-78
2021/12/18 07:38:35;;;;;;;5.03;2.20;;;;;;;5.49;100.00;102658.53;5011316;28;20271;-77
2021/12/18 07:41:01;;;;;;;5.97;1.80;;;;;;;5.48;100.00;102656.75;5013270;28;20258;-79
2021/12/18 07:43:29;;;;;;;3.67;1.90;;;;;;;5.46;100.00;102652.34;5015007;28;20204;-78
2021/12/18 07:45:55;;;;;;;3.03;1.10;;;;;;;5.47;100.00;102651.50;5015854;28;20247;-78
2021/12/18 07:48:21;;;;;;;3.57;1.57;;;;;;;5.51;100.00;102653.38;5015401;28;20206;-78
2021/12/18 07:50:48;;;;;;;4.37;1.63;;;;;;;5.62;100.00;102646.88;5014960;28;20274;-78
2021/12/18 07:53:16;;;;;;;4.23;1.73;;;;;;;5.66;100.00;102653.94;5016896;28;20207;-78
2021/12/18 07:55:43;;;;;;;3.53;1.90;;;;;;;5.68;100.00;102649.72;5015070;28;20232;-78
2021/12/18 07:58:09;;;;;;;2.70;1.63;;;;;;;5.70;100.00;102657.53;5015129;28;20259;-78
2021/12/18 08:00:37;;;;;;;2.53;1.67;;;;;;;5.69;100.00;102659.25;5014273;28;20584;-78
2021/12/18 08:03:04;;;;;;;4.00;2.00;;;;;;;5.69;100.00;102661.84;5014896;28;20203;-78
2021/12/18 08:05:30;;;;;;;3.33;2.10;;;;;;;5.67;100.00;102660.91;5015258;28;20203;-76
2021/12/18 08:07:56;;;;;;;3.40;1.90;;;;;;;5.83;100.00;102657.19;5015654;28;20199;-78
2021/12/18 08:10:23;;;;;;;2.63;1.80;;;;;;;5.83;100.00;102667.53;5015094;28;20235;-77
2021/12/18 08:12:49;;;;;;;2.27;1.80;;;;;;;5.94;100.00;102657.56;5014554;28;20226;-78
2021/12/18 08:15:16;;;;;;;2.30;1.90;;;;;;;5.96;100.00;102667.16;5014663;28;20201;-78
2021/12/18 08:17:43;;;;;;;2.43;1.50;;;;;;;5.88;100.00;102667.69;5014562;28;20619;-77
2021/12/18 08:20:11;;;;;;;2.57;1.40;;;;;;;5.99;100.00;102665.53;5014637;28;20212;-78
2021/12/18 08:22:37;;;;;;;2.10;1.50;;;;;;;6.01;100.00;102671.66;5012309;28;20638;-78
2021/12/18 08:25:05;;;;;;;2.00;1.50;;;;;;;5.97;100.00;102674.13;5014495;28;20212;-77
2021/12/18 08:27:31;;;;;;;2.60;1.47;;;;;;;5.91;100.00;102680.78;5014626;28;20676;-77
2021/12/18 08:29:58;;;;;;;2.37;1.43;;;;;;;5.83;100.00;102683.09;5014200;28;20282;-78
2021/12/18 08:32:24;;;;;;;2.83;1.50;;;;;;;5.86;100.00;102684.91;5014117;28;20211;-78
2021/12/18 08:34:52;;;;;;;2.60;1.35;;;;;;;5.94;100.00;102692.13;5014148;28;20934;-77
2021/12/18 08:37:20;;;;;;;3.23;1.20;;;;;;;5.95;100.00;102691.34;5014288;28;20206;-78
2021/12/18 08:39:46;;;;;;;2.20;1.20;;;;;;;6.01;100.00;102692.41;5014179;28;20205;-78
2021/12/18 08:42:13;;;;;;;1.70;1.23;;;;;;;5.89;100.00;102688.50;5013595;28;20195;-78
2021/12/18 08:44:39;;;;;;;1.50;1.17;;;;;;;5.96;100.00;102694.81;5014628;28;20203;-76
2021/12/18 08:47:06;;;;;;;0.90;0.90;;;;;;;5.97;100.00;102701.78;5014248;28;20198;-78
2021/12/18 08:49:33;;;;;;;1.10;0.97;;;;;;;6.01;100.00;102697.59;5014364;28;20197;-78
2021/12/18 08:52:00;;;;;;;1.63;1.07;;;;;;;6.08;100.00;102707.34;5013196;28;20244;-78
2021/12/18 08:54:27;;;;;;;1.07;0.97;;;;;;;6.05;100.00;102715.91;5015936;28;20742;-78
2021/12/18 08:56:53;;;;;;;1.50;1.10;;;;;;;6.14;100.00;102725.72;5010602;28;20549;-77
2021/12/18 08:59:19;;;;;;;0.93;0.90;;;;;;;6.20;100.00;102728.50;5014635;28;20208;-78
2021/12/18 09:01:46;;;;;;;1.00;0.80;;;;;;;6.09;100.00;102733.31;5014136;28;20288;-77
2021/12/18 09:04:12;;;;;;;0.97;0.60;;;;;;;6.11;100.00;102743.75;5013264;28;20204;-77
2021/12/18 09:06:39;;;;;;;1.20;1.00;;;;;;;6.14;100.00;102731.78;5015356;28;20683;-78
2021/12/18 09:09:07;;;;;;;1.80;1.20;;;;;;;6.24;100.00;102734.69;5015020;28;20241;-78
2021/12/18 09:11:33;;;;;;;1.73;1.63;;;;;;;6.16;100.00;102737.00;5014555;28;20233;-76
2021/12/18 09:14:02;;;;;;;2.33;2.13;;;;;;;6.16;100.00;102727.56;5014331;28;20230;-78
2021/12/18 09:16:29;;;;;;;2.57;1.97;;;;;;;6.33;100.00;102729.84;5014956;28;20210;-78
2021/12/18 09:18:55;;;;;;;2.33;2.13;;;;;;;6.36;100.00;102728.25;5014771;28;20205;-78
2021/12/18 09:21:21;;;;;;;2.67;2.27;;;;;;;6.31;100.00;102736.69;5014816;28;20225;-78
2021/12/18 09:23:48;;;;;;;3.10;2.30;;;;;;;6.37;100.00;102729.13;5015955;28;20586;-78
2021/12/18 09:26:16;;;;;;;3.80;2.23;;;;;;;6.37;100.00;102734.31;5014688;28;20204;-79
2021/12/18 09:28:42;;;;;;;2.80;2.60;;;;;;;6.36;100.00;102716.97;5014003;28;20210;-78
2021/12/18 09:31:09;;;;;;;3.90;3.33;;;;;;;6.21;100.00;102703.50;5014576;28;20228;-79
2021/12/18 09:33:35;;;;;;;3.70;3.30;;;;;;;6.33;100.00;102709.97;5013963;28;20208;-78
2021/12/18 09:36:01;;;;;;;4.37;3.97;;;;;;;6.31;100.00;102692.59;5014423;28;20571;-78
2021/12/18 09:38:28;;;;;;;4.40;3.93;;;;;;;6.16;100.00;102696.44;5013827;28;20205;-77
2021/12/18 09:40:57;;;;;;;4.63;3.57;;;;;;;6.16;100.00;102690.34;5013269;28;20233;-77
2021/12/18 09:43:26;;;;;;;4.10;3.27;;;;;;;6.18;100.00;102680.03;5013398;28;20208;-80
2021/12/18 09:45:53;;;;;;;3.77;3.10;;;;;;;6.20;100.00;102683.56;5014604;28;20243;-79
2021/12/18 09:48:20;;;;;;;4.47;3.50;;;;;;;6.15;100.00;102675.63;5013613;28;20726;-78
2021/12/18 09:50:55;;;;;;;3.60;3.30;;;;;;;6.12;100.00;102684.16;5014240;28;20241;-78
2021/12/18 09:53:21;;;;;;;4.17;3.80;;;;;;;6.15;100.00;102689.47;5016009;28;20290;-78
2021/12/18 09:55:47;;;;;;;4.53;3.77;;;;;;;6.15;100.00;102686.88;5014677;28;20266;-78
2021/12/18 09:58:14;;;;;;;4.20;3.80;;;;;;;6.11;100.00;102684.13;5013695;28;20206;-78
2021/12/18 10:00:42;;;;;;;4.23;3.83;;;;;;;6.18;100.00;102690.41;5013010;28;20255;-78
2021/12/18 10:03:08;;;;;;;4.17;3.77;;;;;;;6.24;100.00;102683.72;5013037;28;20271;-78
2021/12/18 10:05:38;;;;;;;3.97;3.67;;;;;;;6.33;100.00;102685.75;5012342;28;20259;-78
2021/12/18 10:08:06;;;;;;;5.30;4.80;;;;;;;6.38;100.00;102699.75;5012876;28;20255;-77
2021/12/18 10:10:32;;;;;;;3.70;3.40;;;;;;;6.35;100.00;102697.94;5010680;28;20231;-78
2021/12/18 10:13:03;;;;;;;3.70;3.40;;;;;;;6.35;100.00;102712.63;5010703;28;20212;-77
2021/12/18 10:15:30;;;;;;;3.27;2.93;;;;;;;6.22;100.00;102702.66;5011816;28;20207;-79
2021/12/18 10:18:06;;;;;;;3.63;3.33;;;;;;;6.13;100.00;102705.81;5012063;28;20255;-78
2021/12/18 10:20:33;;;;;;;4.07;3.70;;;;;;;6.20;100.00;102688.75;5012103;28;20282;-78
2021/12/18 10:23:02;;;;;;;6.17;3.23;;;;;;;6.44;100.00;102667.97;5012859;28;20203;-78
2021/12/18 10:25:30;;;;;;;3.80;3.47;;;;;;;6.33;100.00;102671.06;5011563;28;20681;-78
2021/12/18 10:28:03;;;;;;;4.00;3.60;;;;;;;6.32;100.00;102669.31;5013214;28;20205;-78
2021/12/18 10:30:30;;;;;;;3.53;3.23;;;;;;;6.15;100.00;102675.63;5012441;28;20228;-77
2021/12/18 10:33:00;;;;;;;4.60;4.20;;;;;;;6.08;100.00;102661.53;5011046;28;20619;-77
2021/12/18 10:35:39;;;;;;;4.20;3.83;;;;;;;6.14;100.00;102638.44;5011637;28;20215;-77
2021/12/18 10:38:07;;;;;;;5.00;3.90;;;;;;;6.05;100.00;102627.75;5011811;28;20207;-77
2021/12/18 10:40:43;;;;;;;4.80;4.10;;;;;;;6.00;100.00;102610.25;5012341;28;20238;-78
2021/12/18 10:43:09;;;;;;;7.23;4.03;;;;;;;6.02;100.00;102600.81;5009192;28;20200;-77
2021/12/18 10:45:59;;;;;;;4.70;4.17;;;;;;;6.00;100.00;102584.34;5012469;28;20253;-78
2021/12/18 10:48:25;;;;;;;4.30;3.90;;;;;;;6.02;100.00;102575.78;5014239;28;20612;-77
2021/12/18 10:50:53;;;;;;;4.80;3.57;;;;;;;6.06;100.00;102571.59;5011809;28;20223;-77
2021/12/18 10:53:22;;;;;;;4.93;4.27;;;;;;;6.11;100.00;102568.31;5013834;28;20209;-78
2021/12/18 10:55:50;;;;;;;5.07;3.73;;;;;;;6.08;100.00;102575.97;5011247;28;20236;-76
2021/12/18 10:58:20;;;;;;;3.80;3.33;;;;;;;6.08;100.00;102573.38;5011857;28;20198;-77
2021/12/18 11:00:53;;;;;;;3.77;3.47;;;;;;;6.16;100.00;102578.84;5011809;28;20275;-79
2021/12/18 11:03:26;;;;;;;3.10;2.90;;;;;;;6.25;100.00;102584.34;5004354;28;20199;-78
2021/12/18 11:06:13;;;;;;;4.40;3.17;;;;;;;6.26;100.00;102588.69;5011780;28;20203;-77
2021/12/18 11:09:05;;;;;;;3.50;3.20;;;;;;;6.15;100.00;102596.13;5011193;28;20204;-78
2021/12/18 11:14:24;;;;;;;3.40;3.10;;;;;;;6.14;100.00;102596.97;5004805;28;20212;-77
2021/12/18 11:16:52;;;;;;;4.27;3.33;;;;;;;6.08;100.00;102595.84;5011276;28;20254;-77
2021/12/18 11:19:21;;;;;;;3.23;2.80;;;;;;;6.09;100.00;102579.47;5004414;28;20200;-78
2021/12/18 11:21:50;;;;;;;3.83;3.23;;;;;;;6.02;100.00;102578.38;5011952;28;20600;-79
2021/12/18 11:24:17;;;;;;;3.50;3.10;;;;;;;6.19;100.00;102573.78;5013739;28;20262;-76
2021/12/18 11:26:50;;;;;;;3.93;3.23;;;;;;;6.18;100.00;102566.81;5011074;28;20721;-78
2021/12/18 11:29:21;;;;;;;4.60;3.60;;;;;;;6.12;100.00;102564.88;5011305;28;20620;-79
2021/12/18 11:31:48;;;;;;;3.27;2.90;;;;;;;5.98;100.00;102571.31;5011361;28;20293;-79
2021/12/18 11:34:16;;;;;;;3.20;2.73;;;;;;;5.91;100.00;102559.84;5011283;28;20251;-78
2021/12/18 11:36:44;;;;;;;3.30;3.00;;;;;;;5.91;100.00;102557.25;5011592;28;20258;-77
2021/12/18 11:39:13;;;;;;;3.90;3.07;;;;;;;6.05;100.00;102547.38;5011340;28;20268;-78
2021/12/18 11:41:40;;;;;;;3.90;3.00;;;;;;;6.03;100.00;102553.34;5011141;28;20281;-76
2021/12/18 11:44:25;;;;;;;7.53;2.97;;;;;;;6.00;100.00;102548.91;5015002;28;20202;-77
2021/12/18 11:46:52;;;;;;;4.37;2.50;;;;;;;5.95;100.00;102550.50;5017957;28;20203;-79
2021/12/18 11:49:19;;;;;;;5.77;2.53;;;;;;;5.86;100.00;102548.41;5019382;28;20204;-78
2021/12/18 11:51:58;;;;;;;4.30;3.07;;;;;;;5.92;100.00;102542.56;5013728;28;20229;-77
2021/12/18 11:54:45;;;;;;;5.37;2.33;;;;;;;6.00;100.00;102543.72;5013195;28;20207;-78